キエフ/ボリースピリ の空港の天気 - METARとTAF

ボリースピリ国際空港(キエフ) ( UKBB / KBP ) - ウクライナ ボリスピリ (キエフ近郊)
飛行場実況気象(Metar)
観測時間04/21 03:00 EEST (04/21 00:00 UTC)
風向・風速西 3m/s
視程10km以上
天気現象
なし
気温6℃
湿度81%
気圧1018hPa
METARUKBB 210000Z 27003MPS CAVOK 06/03 Q1018 R88/D NOSIG
過去の天気等 Google飛行場航空写真 Wunderground天気予報

過去48時間のMETAR

飛行場予報(TAF)
発表時間: 4/21 02:00 EEST (4/20 23:00 UTC)
予報対象時間: 21日3時 EEST ~ 22日3時 EEST
風向・風速西北西 5m/s
視程10km以上
全天の4割程度の雲 雲底高度 910m
21日3時 EEST ~ 21日7時 EEST に一時的に
視程2,000m
天気現象もや
全天の4割程度の雲 雲底高度 210m
21日7時 EEST ~ 21日9時 EEST に徐々に
風向・風速西 7m/s 瞬間風速 13m/s
21日11時 EEST ~ 21日21時 EEST に一時的に
風向・風速西北西 11m/s 瞬間風速 16m/s
21日21時 EEST ~ 21日23時 EEST に徐々に
風向・風速北西 5m/s 瞬間風速 10m/s
TAF UKBB 202300Z 2100/2124 29005MPS 9999 SCT030
TEMPO 2100/2104 2000 BR SCT007
BECMG 2104/2106 26007G13MPS
TEMPO 2108/2118 29011G16MPS
BECMG 2118/2120 32005G10MPS